Home   Weather   Uzbekistan   Tashkent   Past weeks
Flag for Uzbekistan

Past Weather in Tashkent, Uzbekistan — Yesterday and Last 2 Weeks

Currently: 84 °F. Passing clouds. (Weather station: Tashkent, Uzbekistan). See more current weather

Past Weather in Tashkent — Graph

°F

Tashkent Temperature Yesterday

Maximum temperature yesterday: 91 °F (at 1:30 pm)
Minimum temperature yesterday: 72 °F (at 1:30 am)
Average temperature yesterday: 83 °F

High & Low Weather Summary for the Past Weeks

 TemperatureHumidityPressure
High108 °F (Jun 5, 2:30 pm)53% (Jun 13, 3:00 am)29.92 "Hg (Jun 13, 3:00 am)
Low66 °F (Jun 14, 4:30 am)9% (Jun 5, 3:00 pm)29.56 "Hg (Jun 6, 5:00 pm)
Average88 °F26%29.76 "Hg
* Reported May 30 10:00 am — Jun 14 10:30 am, Tashkent. Weather by CustomWeather, © 2021

Note: Actual official high and low records may vary slightly from our data, if they occured in-between our weather recording intervals... More about our weather records

Tashkent Weather History for the Previous 24 Hours

Scroll right to see more
 ConditionsComfort  
Time TempWeatherWind HumidityBarometerVisibility
10:30 am
Mon, Jun 14
81 °FPassing clouds.9 mph28%29.80 "HgN/A
10:00 am81 °FPassing clouds.9 mph28%29.80 "HgN/A
9:30 am77 °FPassing clouds.9 mph30%29.80 "HgN/A
9:00 am75 °FPassing clouds.9 mph34%29.80 "HgN/A
8:30 am73 °FPassing clouds.12 mph36%29.80 "HgN/A
8:00 am72 °FPassing clouds.12 mph38%29.80 "HgN/A
7:30 am70 °FPassing clouds.9 mph38%29.80 "HgN/A
7:00 am70 °FPassing clouds.9 mph35%29.77 "HgN/A
6:30 am66 °FSunny.9 mph46%29.77 "Hg10 mi
5:30 am66 °FSunny.7 mph49%29.77 "Hg10 mi
5:00 am66 °FSunny.7 mph52%29.77 "Hg10 mi
4:30 am66 °FClear.7 mph52%29.77 "Hg10 mi
4:00 am68 °FClear.5 mph49%29.77 "Hg10 mi
3:30 am68 °FPassing clouds.5 mph49%29.74 "HgN/A
3:00 am70 °FPassing clouds.5 mph46%29.74 "HgN/A
2:30 am70 °FClear.7 mph43%29.74 "Hg10 mi
2:00 am72 °FClear.5 mph44%29.74 "Hg10 mi
1:30 am73 °FClear.5 mph38%29.74 "Hg10 mi
1:00 am75 °FClear.5 mph34%29.74 "Hg10 mi
12:30 am75 °FClear.5 mph31%29.74 "Hg10 mi
11:00 pm
Sun, Jun 13
79 °FClear.7 mph26%29.77 "Hg10 mi
10:30 pm81 °FPassing clouds.5 mph24%29.77 "HgN/A
10:00 pm82 °FPassing clouds.5 mph23%29.77 "HgN/A
9:30 pm82 °FClear.5 mph23%29.77 "Hg10 mi
9:00 pm84 °FClear.7 mph22%29.74 "Hg10 mi
8:30 pm86 °FPassing clouds.5 mph22%29.74 "HgN/A
8:00 pm86 °FClear.No wind22%29.74 "Hg10 mi
7:30 pm88 °FPassing clouds.5 mph21%29.74 "HgN/A
7:00 pm88 °FPassing clouds.7 mph21%29.74 "HgN/A
6:30 pm90 °FPassing clouds.9 mph20%29.74 "HgN/A
6:00 pm90 °FPassing clouds.9 mph20%29.74 "HgN/A
5:30 pm90 °FPassing clouds.12 mph20%29.74 "HgN/A
5:00 pm91 °FPassing clouds.9 mph18%29.74 "HgN/A
4:30 pm91 °FPassing clouds.9 mph16%29.74 "HgN/A
4:00 pm91 °FSunny.7 mph16%29.74 "Hg10 mi
3:30 pm91 °FPassing clouds.9 mph15%29.74 "HgN/A
3:00 pm91 °FSunny.7 mph16%29.77 "Hg10 mi
2:30 pm91 °FPassing clouds.14 mph14%29.77 "HgN/A
2:00 pm91 °FPassing clouds.14 mph14%29.77 "HgN/A
1:30 pm91 °FSunny.12 mph14%29.77 "Hg10 mi
1:00 pm90 °FPassing clouds.14 mph16%29.80 "HgN/A
12:30 pm90 °FPassing clouds.12 mph17%29.80 "HgN/A
12:00 pm88 °FPassing clouds.12 mph17%29.80 "HgN/A
11:30 am88 °FPassing clouds.9 mph18%29.80 "HgN/A
11:00 am88 °FSunny.12 mph19%29.80 "Hg10 mi
Weather by CustomWeather, © 2021

See weather overview